sensor_id;sensor_type;location;lat;lon;timestamp;P1;durP1;ratioP1;P2;durP2;ratioP2
6442;SDS011;3254;47.372;8.512;2024-03-02T00:00:54;25.47;;;15.87;;
6442;SDS011;3254;47.372;8.512;2024-03-02T00:03:19;29.80;;;17.43;;
6442;SDS011;3254;47.372;8.512;2024-03-02T00:05:48;34.17;;;18.10;;
6442;SDS011;3254;47.372;8.512;2024-03-02T00:08:16;32.60;;;17.85;;
6442;SDS011;3254;47.372;8.512;2024-03-02T00:10:48;34.17;;;19.00;;
6442;SDS011;3254;47.372;8.512;2024-03-02T00:13:13;31.80;;;18.70;;
6442;SDS011;3254;47.372;8.512;2024-03-02T00:18:11;35.28;;;19.33;;
6442;SDS011;3254;47.372;8.512;2024-03-02T00:20:40;32.42;;;17.80;;
6442;SDS011;3254;47.372;8.512;2024-03-02T00:23:06;36.87;;;19.13;;
6442;SDS011;3254;47.372;8.512;2024-03-02T00:28:10;42.40;;;20.40;;
6442;SDS011;3254;47.372;8.512;2024-03-02T00:33:28;38.90;;;20.90;;
6442;SDS011;3254;47.372;8.512;2024-03-02T00:35:55;36.63;;;20.85;;
6442;SDS011;3254;47.372;8.512;2024-03-02T00:38:21;33.93;;;20.10;;
6442;SDS011;3254;47.372;8.512;2024-03-02T00:40:47;33.05;;;19.80;;
6442;SDS011;3254;47.372;8.512;2024-03-02T00:46:07;34.60;;;17.67;;
6442;SDS011;3254;47.372;8.512;2024-03-02T00:48:33;34.63;;;17.90;;
6442;SDS011;3254;47.372;8.512;2024-03-02T00:51:02;27.17;;;16.17;;
6442;SDS011;3254;47.372;8.512;2024-03-02T00:53:31;35.08;;;17.75;;
6442;SDS011;3254;47.372;8.512;2024-03-02T00:55:58;31.63;;;17.98;;
6442;SDS011;3254;47.372;8.512;2024-03-02T00:58:24;30.27;;;16.92;;
6442;SDS011;3254;47.372;8.512;2024-03-02T01:00:50;30.50;;;17.70;;
6442;SDS011;3254;47.372;8.512;2024-03-02T01:03:15;32.20;;;19.07;;
6442;SDS011;3254;47.372;8.512;2024-03-02T01:05:41;36.80;;;19.50;;
6442;SDS011;3254;47.372;8.512;2024-03-02T01:08:07;33.88;;;18.48;;
6442;SDS011;3254;47.372;8.512;2024-03-02T01:10:32;39.03;;;19.67;;
6442;SDS011;3254;47.372;8.512;2024-03-02T01:12:58;47.93;;;25.27;;
6442;SDS011;3254;47.372;8.512;2024-03-02T01:15:23;37.00;;;21.40;;
6442;SDS011;3254;47.372;8.512;2024-03-02T01:17:48;45.13;;;22.60;;
6442;SDS011;3254;47.372;8.512;2024-03-02T01:20:14;52.47;;;24.80;;
6442;SDS011;3254;47.372;8.512;2024-03-02T01:22:39;45.07;;;21.80;;
6442;SDS011;3254;47.372;8.512;2024-03-02T01:25:05;48.00;;;23.07;;
6442;SDS011;3254;47.372;8.512;2024-03-02T01:27:30;43.10;;;22.03;;
6442;SDS011;3254;47.372;8.512;2024-03-02T01:29:56;40.20;;;21.23;;
6442;SDS011;3254;47.372;8.512;2024-03-02T01:32:21;62.53;;;29.40;;
6442;SDS011;3254;47.372;8.512;2024-03-02T01:34:47;48.70;;;22.57;;
6442;SDS011;3254;47.372;8.512;2024-03-02T01:37:12;65.73;;;32.63;;
6442;SDS011;3254;47.372;8.512;2024-03-02T01:39:38;62.80;;;28.70;;
6442;SDS011;3254;47.372;8.512;2024-03-02T01:42:03;51.87;;;26.30;;
6442;SDS011;3254;47.372;8.512;2024-03-02T01:44:29;60.50;;;27.13;;
6442;SDS011;3254;47.372;8.512;2024-03-02T01:46:54;57.77;;;26.13;;
6442;SDS011;3254;47.372;8.512;2024-03-02T01:49:19;55.17;;;24.70;;
6442;SDS011;3254;47.372;8.512;2024-03-02T01:51:45;52.33;;;23.43;;
6442;SDS011;3254;47.372;8.512;2024-03-02T01:54:11;53.10;;;22.00;;
6442;SDS011;3254;47.372;8.512;2024-03-02T01:56:36;48.20;;;21.93;;
6442;SDS011;3254;47.372;8.512;2024-03-02T01:59:01;48.80;;;22.87;;
6442;SDS011;3254;47.372;8.512;2024-03-02T02:01:27;54.40;;;22.97;;
6442;SDS011;3254;47.372;8.512;2024-03-02T02:03:52;53.33;;;23.73;;
6442;SDS011;3254;47.372;8.512;2024-03-02T02:06:18;47.47;;;22.43;;
6442;SDS011;3254;47.372;8.512;2024-03-02T02:08:43;58.87;;;24.83;;
6442;SDS011;3254;47.372;8.512;2024-03-02T02:11:09;51.23;;;22.53;;
6442;SDS011;3254;47.372;8.512;2024-03-02T02:13:34;56.33;;;24.53;;
6442;SDS011;3254;47.372;8.512;2024-03-02T02:16:06;44.60;;;21.00;;
6442;SDS011;3254;47.372;8.512;2024-03-02T02:18:32;46.50;;;20.50;;
6442;SDS011;3254;47.372;8.512;2024-03-02T02:20:57;43.70;;;23.00;;
6442;SDS011;3254;47.372;8.512;2024-03-02T02:23:23;57.73;;;24.00;;
6442;SDS011;3254;47.372;8.512;2024-03-02T02:25:49;47.42;;;21.15;;
6442;SDS011;3254;47.372;8.512;2024-03-02T02:28:15;54.47;;;22.10;;
6442;SDS011;3254;47.372;8.512;2024-03-02T02:30:40;49.43;;;22.90;;
6442;SDS011;3254;47.372;8.512;2024-03-02T02:33:06;55.63;;;23.80;;
6442;SDS011;3254;47.372;8.512;2024-03-02T02:35:31;56.07;;;24.67;;
6442;SDS011;3254;47.372;8.512;2024-03-02T02:37:56;62.47;;;25.47;;
6442;SDS011;3254;47.372;8.512;2024-03-02T02:40:23;53.10;;;23.05;;
6442;SDS011;3254;47.372;8.512;2024-03-02T02:42:49;54.20;;;21.57;;
6442;SDS011;3254;47.372;8.512;2024-03-02T02:45:14;53.63;;;23.73;;
6442;SDS011;3254;47.372;8.512;2024-03-02T02:47:43;46.87;;;21.10;;
6442;SDS011;3254;47.372;8.512;2024-03-02T02:50:10;48.90;;;20.92;;
6442;SDS011;3254;47.372;8.512;2024-03-02T02:52:36;48.13;;;21.30;;
6442;SDS011;3254;47.372;8.512;2024-03-02T02:55:08;50.78;;;23.65;;
6442;SDS011;3254;47.372;8.512;2024-03-02T02:57:34;44.15;;;20.70;;
6442;SDS011;3254;47.372;8.512;2024-03-02T03:00:02;55.38;;;21.88;;
6442;SDS011;3254;47.372;8.512;2024-03-02T03:02:30;55.22;;;22.25;;
6442;SDS011;3254;47.372;8.512;2024-03-02T03:04:55;54.20;;;23.40;;
6442;SDS011;3254;47.372;8.512;2024-03-02T03:07:22;50.90;;;20.92;;
6442;SDS011;3254;47.372;8.512;2024-03-02T03:09:47;46.50;;;19.60;;
6442;SDS011;3254;47.372;8.512;2024-03-02T03:12:13;52.90;;;20.77;;
6442;SDS011;3254;47.372;8.512;2024-03-02T03:14:40;49.33;;;21.30;;
6442;SDS011;3254;47.372;8.512;2024-03-02T03:17:06;53.60;;;22.33;;
6442;SDS011;3254;47.372;8.512;2024-03-02T03:19:33;45.72;;;21.08;;
6442;SDS011;3254;47.372;8.512;2024-03-02T03:21:58;43.10;;;20.53;;
6442;SDS011;3254;47.372;8.512;2024-03-02T03:24:24;50.90;;;21.17;;
6442;SDS011;3254;47.372;8.512;2024-03-02T03:26:49;47.60;;;22.03;;
6442;SDS011;3254;47.372;8.512;2024-03-02T03:29:14;57.87;;;24.00;;
6442;SDS011;3254;47.372;8.512;2024-03-02T03:31:40;56.67;;;23.57;;
6442;SDS011;3254;47.372;8.512;2024-03-02T03:34:05;60.87;;;26.17;;
6442;SDS011;3254;47.372;8.512;2024-03-02T03:36:30;51.13;;;24.17;;
6442;SDS011;3254;47.372;8.512;2024-03-02T03:38:56;48.13;;;21.70;;
6442;SDS011;3254;47.372;8.512;2024-03-02T03:41:21;45.23;;;20.07;;
6442;SDS011;3254;47.372;8.512;2024-03-02T03:43:46;50.30;;;20.90;;
6442;SDS011;3254;47.372;8.512;2024-03-02T03:46:12;54.33;;;22.07;;
6442;SDS011;3254;47.372;8.512;2024-03-02T03:48:37;49.93;;;22.40;;
6442;SDS011;3254;47.372;8.512;2024-03-02T03:51:03;51.20;;;21.77;;
6442;SDS011;3254;47.372;8.512;2024-03-02T03:53:28;49.27;;;20.87;;
6442;SDS011;3254;47.372;8.512;2024-03-02T03:55:53;56.37;;;20.70;;
6442;SDS011;3254;47.372;8.512;2024-03-02T03:58:19;45.90;;;19.73;;
6442;SDS011;3254;47.372;8.512;2024-03-02T04:00:45;40.83;;;18.70;;
6442;SDS011;3254;47.372;8.512;2024-03-02T04:03:11;45.27;;;19.77;;
6442;SDS011;3254;47.372;8.512;2024-03-02T04:05:36;52.20;;;20.73;;
6442;SDS011;3254;47.372;8.512;2024-03-02T04:08:03;47.17;;;21.17;;
6442;SDS011;3254;47.372;8.512;2024-03-02T04:10:29;52.90;;;21.80;;
6442;SDS011;3254;47.372;8.512;2024-03-02T04:12:55;47.70;;;21.80;;
6442;SDS011;3254;47.372;8.512;2024-03-02T04:15:20;50.50;;;21.50;;
6442;SDS011;3254;47.372;8.512;2024-03-02T04:17:48;59.30;;;21.50;;
6442;SDS011;3254;47.372;8.512;2024-03-02T04:20:13;54.80;;;23.47;;
6442;SDS011;3254;47.372;8.512;2024-03-02T04:22:38;55.13;;;22.33;;
6442;SDS011;3254;47.372;8.512;2024-03-02T04:25:04;56.57;;;23.47;;
6442;SDS011;3254;47.372;8.512;2024-03-02T04:27:30;57.43;;;22.37;;
6442;SDS011;3254;47.372;8.512;2024-03-02T04:29:56;211.30;;;28.00;;
6442;SDS011;3254;47.372;8.512;2024-03-02T04:32:21;86.93;;;25.27;;
6442;SDS011;3254;47.372;8.512;2024-03-02T04:34:47;63.43;;;23.70;;
6442;SDS011;3254;47.372;8.512;2024-03-02T04:37:12;61.33;;;23.73;;
6442;SDS011;3254;47.372;8.512;2024-03-02T04:39:39;76.45;;;22.42;;
6442;SDS011;3254;47.372;8.512;2024-03-02T04:42:04;74.70;;;24.37;;
6442;SDS011;3254;47.372;8.512;2024-03-02T04:44:30;75.20;;;26.27;;
6442;SDS011;3254;47.372;8.512;2024-03-02T04:46:56;218.60;;;32.95;;
6442;SDS011;3254;47.372;8.512;2024-03-02T04:49:22;290.23;;;31.50;;
6442;SDS011;3254;47.372;8.512;2024-03-02T04:51:48;188.20;;;29.40;;
6442;SDS011;3254;47.372;8.512;2024-03-02T04:54:13;290.40;;;31.40;;
6442;SDS011;3254;47.372;8.512;2024-03-02T04:56:39;358.00;;;33.67;;
6442;SDS011;3254;47.372;8.512;2024-03-02T04:59:16;352.42;;;38.80;;
6442;SDS011;3254;47.372;8.512;2024-03-02T05:01:43;236.98;;;34.67;;
6442;SDS011;3254;47.372;8.512;2024-03-02T05:04:08;545.13;;;45.87;;
6442;SDS011;3254;47.372;8.512;2024-03-02T05:06:36;588.40;;;53.63;;
6442;SDS011;3254;47.372;8.512;2024-03-02T05:09:08;313.52;;;33.40;;
6442;SDS011;3254;47.372;8.512;2024-03-02T05:11:33;320.63;;;37.28;;
6442;SDS011;3254;47.372;8.512;2024-03-02T05:14:03;234.07;;;32.53;;
6442;SDS011;3254;47.372;8.512;2024-03-02T05:16:32;359.25;;;34.78;;
6442;SDS011;3254;47.372;8.512;2024-03-02T05:18:58;389.95;;;39.10;;
6442;SDS011;3254;47.372;8.512;2024-03-02T05:21:23;252.83;;;32.17;;
6442;SDS011;3254;47.372;8.512;2024-03-02T05:23:49;406.67;;;33.47;;
6442;SDS011;3254;47.372;8.512;2024-03-02T05:26:14;382.57;;;37.10;;
6442;SDS011;3254;47.372;8.512;2024-03-02T05:28:39;382.03;;;37.70;;
6442;SDS011;3254;47.372;8.512;2024-03-02T05:31:09;332.20;;;32.95;;
6442;SDS011;3254;47.372;8.512;2024-03-02T05:33:40;206.85;;;30.70;;
6442;SDS011;3254;47.372;8.512;2024-03-02T05:36:05;280.40;;;37.20;;
6442;SDS011;3254;47.372;8.512;2024-03-02T05:38:31;292.30;;;35.60;;
6442;SDS011;3254;47.372;8.512;2024-03-02T05:40:57;343.07;;;38.30;;
6442;SDS011;3254;47.372;8.512;2024-03-02T05:43:22;483.63;;;40.87;;
6442;SDS011;3254;47.372;8.512;2024-03-02T05:45:48;301.17;;;38.20;;
6442;SDS011;3254;47.372;8.512;2024-03-02T05:48:13;209.50;;;37.97;;
6442;SDS011;3254;47.372;8.512;2024-03-02T05:50:38;204.33;;;33.47;;
6442;SDS011;3254;47.372;8.512;2024-03-02T05:53:04;212.93;;;37.23;;
6442;SDS011;3254;47.372;8.512;2024-03-02T05:55:29;256.03;;;38.90;;
6442;SDS011;3254;47.372;8.512;2024-03-02T05:57:56;282.73;;;35.58;;
6442;SDS011;3254;47.372;8.512;2024-03-02T06:00:42;255.63;;;36.75;;
6442;SDS011;3254;47.372;8.512;2024-03-02T06:03:07;240.83;;;38.20;;
6442;SDS011;3254;47.372;8.512;2024-03-02T06:05:34;271.73;;;36.85;;
6442;SDS011;3254;47.372;8.512;2024-03-02T06:07:59;278.47;;;38.00;;
6442;SDS011;3254;47.372;8.512;2024-03-02T06:10:25;258.30;;;40.30;;
6442;SDS011;3254;47.372;8.512;2024-03-02T06:12:51;234.45;;;39.67;;
6442;SDS011;3254;47.372;8.512;2024-03-02T06:15:16;175.53;;;37.90;;
6442;SDS011;3254;47.372;8.512;2024-03-02T06:17:42;123.23;;;34.60;;
6442;SDS011;3254;47.372;8.512;2024-03-02T06:20:07;285.60;;;33.80;;
6442;SDS011;3254;47.372;8.512;2024-03-02T06:22:33;241.03;;;36.50;;
6442;SDS011;3254;47.372;8.512;2024-03-02T06:24:58;293.03;;;36.57;;
6442;SDS011;3254;47.372;8.512;2024-03-02T06:27:24;278.07;;;37.63;;
6442;SDS011;3254;47.372;8.512;2024-03-02T06:29:49;324.03;;;36.63;;
6442;SDS011;3254;47.372;8.512;2024-03-02T06:32:16;182.88;;;30.67;;
6442;SDS011;3254;47.372;8.512;2024-03-02T06:34:41;305.80;;;39.37;;
6442;SDS011;3254;47.372;8.512;2024-03-02T06:37:07;378.47;;;38.50;;
6442;SDS011;3254;47.372;8.512;2024-03-02T06:39:33;385.60;;;37.10;;
6442;SDS011;3254;47.372;8.512;2024-03-02T06:41:59;392.23;;;40.70;;
6442;SDS011;3254;47.372;8.512;2024-03-02T06:44:25;297.97;;;37.83;;
6442;SDS011;3254;47.372;8.512;2024-03-02T06:46:50;402.67;;;41.97;;
6442;SDS011;3254;47.372;8.512;2024-03-02T06:49:16;342.50;;;39.67;;
6442;SDS011;3254;47.372;8.512;2024-03-02T06:51:43;464.00;;;39.97;;
6442;SDS011;3254;47.372;8.512;2024-03-02T06:54:08;313.40;;;37.27;;
6442;SDS011;3254;47.372;8.512;2024-03-02T06:56:34;414.40;;;39.57;;
6442;SDS011;3254;47.372;8.512;2024-03-02T06:58:59;466.10;;;37.20;;
6442;SDS011;3254;47.372;8.512;2024-03-02T07:01:24;396.77;;;38.20;;
6442;SDS011;3254;47.372;8.512;2024-03-02T07:03:51;361.58;;;35.13;;
6442;SDS011;3254;47.372;8.512;2024-03-02T07:06:16;276.00;;;34.00;;
6442;SDS011;3254;47.372;8.512;2024-03-02T07:08:42;272.13;;;34.60;;
6442;SDS011;3254;47.372;8.512;2024-03-02T07:11:07;284.70;;;38.83;;
6442;SDS011;3254;47.372;8.512;2024-03-02T07:13:32;270.10;;;35.03;;
6442;SDS011;3254;47.372;8.512;2024-03-02T07:15:58;249.20;;;35.50;;
6442;SDS011;3254;47.372;8.512;2024-03-02T07:18:29;219.32;;;33.97;;
6442;SDS011;3254;47.372;8.512;2024-03-02T07:20:55;250.65;;;37.65;;
6442;SDS011;3254;47.372;8.512;2024-03-02T07:23:23;256.67;;;36.10;;
6442;SDS011;3254;47.372;8.512;2024-03-02T07:25:52;223.13;;;35.25;;
6442;SDS011;3254;47.372;8.512;2024-03-02T07:28:19;261.95;;;38.13;;
6442;SDS011;3254;47.372;8.512;2024-03-02T07:30:45;234.90;;;39.23;;
6442;SDS011;3254;47.372;8.512;2024-03-02T07:33:11;137.67;;;30.43;;
6442;SDS011;3254;47.372;8.512;2024-03-02T07:35:36;140.03;;;32.33;;
6442;SDS011;3254;47.372;8.512;2024-03-02T07:38:01;171.03;;;31.40;;
6442;SDS011;3254;47.372;8.512;2024-03-02T07:40:27;101.53;;;27.80;;
6442;SDS011;3254;47.372;8.512;2024-03-02T07:42:52;141.07;;;32.00;;
6442;SDS011;3254;47.372;8.512;2024-03-02T07:45:18;123.57;;;32.30;;
6442;SDS011;3254;47.372;8.512;2024-03-02T07:47:43;117.80;;;31.10;;
6442;SDS011;3254;47.372;8.512;2024-03-02T07:50:09;114.40;;;29.80;;
6442;SDS011;3254;47.372;8.512;2024-03-02T07:52:34;76.90;;;26.37;;
6442;SDS011;3254;47.372;8.512;2024-03-02T07:55:00;80.13;;;26.70;;
6442;SDS011;3254;47.372;8.512;2024-03-02T07:57:25;86.03;;;28.10;;
6442;SDS011;3254;47.372;8.512;2024-03-02T07:59:51;98.13;;;30.77;;
6442;SDS011;3254;47.372;8.512;2024-03-02T08:02:16;97.63;;;28.70;;
6442;SDS011;3254;47.372;8.512;2024-03-02T08:04:41;125.87;;;27.03;;
6442;SDS011;3254;47.372;8.512;2024-03-02T08:07:07;95.53;;;27.90;;
6442;SDS011;3254;47.372;8.512;2024-03-02T08:09:34;139.88;;;31.30;;
6442;SDS011;3254;47.372;8.512;2024-03-02T08:11:59;135.03;;;31.67;;
6442;SDS011;3254;47.372;8.512;2024-03-02T08:14:25;120.30;;;32.20;;
6442;SDS011;3254;47.372;8.512;2024-03-02T08:16:50;166.53;;;37.67;;
6442;SDS011;3254;47.372;8.512;2024-03-02T08:19:15;137.60;;;32.83;;
6442;SDS011;3254;47.372;8.512;2024-03-02T08:21:42;129.67;;;36.80;;
6442;SDS011;3254;47.372;8.512;2024-03-02T08:24:08;125.47;;;33.70;;
6442;SDS011;3254;47.372;8.512;2024-03-02T08:26:33;99.47;;;33.20;;
6442;SDS011;3254;47.372;8.512;2024-03-02T08:28:59;85.73;;;31.60;;
6442;SDS011;3254;47.372;8.512;2024-03-02T08:31:26;95.57;;;31.73;;
6442;SDS011;3254;47.372;8.512;2024-03-02T08:33:51;87.63;;;31.57;;
6442;SDS011;3254;47.372;8.512;2024-03-02T08:36:17;78.17;;;30.27;;
6442;SDS011;3254;47.372;8.512;2024-03-02T08:38:42;67.37;;;28.10;;
6442;SDS011;3254;47.372;8.512;2024-03-02T08:41:09;61.53;;;25.53;;
6442;SDS011;3254;47.372;8.512;2024-03-02T08:43:34;53.47;;;24.93;;
6442;SDS011;3254;47.372;8.512;2024-03-02T08:46:00;45.70;;;21.97;;
6442;SDS011;3254;47.372;8.512;2024-03-02T08:48:25;32.80;;;19.67;;
6442;SDS011;3254;47.372;8.512;2024-03-02T08:50:50;34.10;;;19.80;;
6442;SDS011;3254;47.372;8.512;2024-03-02T08:53:16;30.70;;;18.10;;
6442;SDS011;3254;47.372;8.512;2024-03-02T08:55:45;26.80;;;16.23;;
6442;SDS011;3254;47.372;8.512;2024-03-02T08:58:11;26.20;;;16.10;;
6442;SDS011;3254;47.372;8.512;2024-03-02T09:00:36;27.17;;;16.40;;
6442;SDS011;3254;47.372;8.512;2024-03-02T09:03:01;26.83;;;15.43;;
6442;SDS011;3254;47.372;8.512;2024-03-02T09:05:27;24.93;;;15.63;;
6442;SDS011;3254;47.372;8.512;2024-03-02T09:07:52;27.30;;;15.90;;
6442;SDS011;3254;47.372;8.512;2024-03-02T09:10:18;24.90;;;15.30;;
6442;SDS011;3254;47.372;8.512;2024-03-02T09:12:43;22.30;;;14.63;;
6442;SDS011;3254;47.372;8.512;2024-03-02T09:15:08;20.37;;;13.50;;
6442;SDS011;3254;47.372;8.512;2024-03-02T09:17:34;19.03;;;13.60;;
6442;SDS011;3254;47.372;8.512;2024-03-02T09:19:59;18.00;;;12.10;;
6442;SDS011;3254;47.372;8.512;2024-03-02T09:22:25;19.10;;;14.23;;
6442;SDS011;3254;47.372;8.512;2024-03-02T09:24:50;17.00;;;12.90;;
6442;SDS011;3254;47.372;8.512;2024-03-02T09:27:16;19.27;;;13.67;;
6442;SDS011;3254;47.372;8.512;2024-03-02T09:29:41;16.50;;;11.90;;
6442;SDS011;3254;47.372;8.512;2024-03-02T09:32:07;16.53;;;12.47;;
6442;SDS011;3254;47.372;8.512;2024-03-02T09:34:33;16.13;;;12.80;;
6442;SDS011;3254;47.372;8.512;2024-03-02T09:36:59;37.93;;;18.80;;
6442;SDS011;3254;47.372;8.512;2024-03-02T09:39:24;26.73;;;16.00;;
6442;SDS011;3254;47.372;8.512;2024-03-02T09:41:52;21.40;;;13.50;;
6442;SDS011;3254;47.372;8.512;2024-03-02T09:44:18;17.97;;;13.77;;
6442;SDS011;3254;47.372;8.512;2024-03-02T09:46:44;16.77;;;11.73;;
6442;SDS011;3254;47.372;8.512;2024-03-02T09:49:14;16.50;;;11.93;;
6442;SDS011;3254;47.372;8.512;2024-03-02T09:51:39;14.73;;;11.73;;
6442;SDS011;3254;47.372;8.512;2024-03-02T09:54:06;15.70;;;12.23;;
6442;SDS011;3254;47.372;8.512;2024-03-02T09:56:32;13.83;;;11.10;;
6442;SDS011;3254;47.372;8.512;2024-03-02T09:58:58;13.60;;;10.90;;
6442;SDS011;3254;47.372;8.512;2024-03-02T10:01:24;12.90;;;11.27;;
6442;SDS011;3254;47.372;8.512;2024-03-02T10:03:49;11.93;;;9.33;;
6442;SDS011;3254;47.372;8.512;2024-03-02T10:06:22;9.63;;;8.63;;
6442;SDS011;3254;47.372;8.512;2024-03-02T10:08:49;9.70;;;8.70;;
6442;SDS011;3254;47.372;8.512;2024-03-02T10:11:31;9.87;;;8.87;;
6442;SDS011;3254;47.372;8.512;2024-03-02T10:14:07;9.23;;;8.43;;
6442;SDS011;3254;47.372;8.512;2024-03-02T10:16:36;7.90;;;7.10;;
6442;SDS011;3254;47.372;8.512;2024-03-02T10:21:47;9.33;;;8.30;;
6442;SDS011;3254;47.372;8.512;2024-03-02T10:24:14;9.77;;;8.83;;
6442;SDS011;3254;47.372;8.512;2024-03-02T10:26:40;9.77;;;8.53;;
6442;SDS011;3254;47.372;8.512;2024-03-02T10:29:07;10.10;;;8.93;;
6442;SDS011;3254;47.372;8.512;2024-03-02T10:31:33;9.17;;;7.83;;
6442;SDS011;3254;47.372;8.512;2024-03-02T10:33:58;9.23;;;7.80;;
6442;SDS011;3254;47.372;8.512;2024-03-02T10:36:25;8.97;;;8.13;;
6442;SDS011;3254;47.372;8.512;2024-03-02T10:38:51;10.27;;;8.10;;
6442;SDS011;3254;47.372;8.512;2024-03-02T10:41:20;8.27;;;7.57;;
6442;SDS011;3254;47.372;8.512;2024-03-02T10:43:49;8.40;;;7.50;;
6442;SDS011;3254;47.372;8.512;2024-03-02T10:46:16;7.30;;;6.60;;
6442;SDS011;3254;47.372;8.512;2024-03-02T10:48:44;7.60;;;6.90;;
6442;SDS011;3254;47.372;8.512;2024-03-02T10:51:11;7.40;;;6.90;;
6442;SDS011;3254;47.372;8.512;2024-03-02T10:53:37;7.33;;;6.40;;
6442;SDS011;3254;47.372;8.512;2024-03-02T10:56:02;6.63;;;6.13;;
6442;SDS011;3254;47.372;8.512;2024-03-02T10:58:31;6.60;;;6.10;;
6442;SDS011;3254;47.372;8.512;2024-03-02T11:01:00;6.20;;;5.70;;
6442;SDS011;3254;47.372;8.512;2024-03-02T11:03:27;7.33;;;6.63;;
6442;SDS011;3254;47.372;8.512;2024-03-02T11:05:59;6.47;;;6.03;;
6442;SDS011;3254;47.372;8.512;2024-03-02T11:08:24;6.70;;;6.20;;
6442;SDS011;3254;47.372;8.512;2024-03-02T11:10:52;6.00;;;5.60;;
6442;SDS011;3254;47.372;8.512;2024-03-02T11:13:22;6.63;;;6.03;;
6442;SDS011;3254;47.372;8.512;2024-03-02T11:15:53;6.37;;;5.80;;
6442;SDS011;3254;47.372;8.512;2024-03-02T11:18:20;6.43;;;6.00;;
6442;SDS011;3254;47.372;8.512;2024-03-02T11:20:46;6.93;;;6.43;;
6442;SDS011;3254;47.372;8.512;2024-03-02T11:23:12;5.80;;;5.30;;
6442;SDS011;3254;47.372;8.512;2024-03-02T11:25:38;6.27;;;5.77;;
6442;SDS011;3254;47.372;8.512;2024-03-02T11:28:07;6.93;;;6.30;;
6442;SDS011;3254;47.372;8.512;2024-03-02T11:33:06;6.33;;;5.93;;
6442;SDS011;3254;47.372;8.512;2024-03-02T11:35:35;6.03;;;5.63;;
6442;SDS011;3254;47.372;8.512;2024-03-02T11:38:13;5.97;;;5.57;;
6442;SDS011;3254;47.372;8.512;2024-03-02T11:40:39;5.97;;;5.57;;
6442;SDS011;3254;47.372;8.512;2024-03-02T11:43:05;6.07;;;5.67;;
6442;SDS011;3254;47.372;8.512;2024-03-02T11:45:31;6.53;;;6.10;;
6442;SDS011;3254;47.372;8.512;2024-03-02T11:47:58;7.40;;;6.70;;
6442;SDS011;3254;47.372;8.512;2024-03-02T11:50:31;6.53;;;6.10;;
6442;SDS011;3254;47.372;8.512;2024-03-02T11:52:59;6.30;;;5.80;;
6442;SDS011;3254;47.372;8.512;2024-03-02T11:55:25;7.23;;;6.47;;
6442;SDS011;3254;47.372;8.512;2024-03-02T11:57:52;7.10;;;6.43;;
6442;SDS011;3254;47.372;8.512;2024-03-02T12:00:18;6.93;;;6.43;;
6442;SDS011;3254;47.372;8.512;2024-03-02T12:02:43;7.10;;;6.50;;
6442;SDS011;3254;47.372;8.512;2024-03-02T12:05:14;6.93;;;6.33;;
6442;SDS011;3254;47.372;8.512;2024-03-02T12:07:40;9.23;;;6.80;;
6442;SDS011;3254;47.372;8.512;2024-03-02T12:10:06;7.13;;;6.53;;
6442;SDS011;3254;47.372;8.512;2024-03-02T12:12:32;7.90;;;7.20;;
6442;SDS011;3254;47.372;8.512;2024-03-02T12:14:57;7.40;;;6.77;;
6442;SDS011;3254;47.372;8.512;2024-03-02T12:17:25;7.27;;;6.60;;
6442;SDS011;3254;47.372;8.512;2024-03-02T12:19:50;7.00;;;6.30;;
6442;SDS011;3254;47.372;8.512;2024-03-02T12:22:16;9.83;;;8.87;;
6442;SDS011;3254;47.372;8.512;2024-03-02T12:24:41;6.70;;;5.97;;
6442;SDS011;3254;47.372;8.512;2024-03-02T12:27:10;7.57;;;6.83;;
6442;SDS011;3254;47.372;8.512;2024-03-02T12:29:36;6.73;;;6.13;;
6442;SDS011;3254;47.372;8.512;2024-03-02T12:32:02;6.60;;;6.10;;
6442;SDS011;3254;47.372;8.512;2024-03-02T12:34:27;7.03;;;6.43;;
6442;SDS011;3254;47.372;8.512;2024-03-02T12:36:53;6.37;;;5.93;;
6442;SDS011;3254;47.372;8.512;2024-03-02T12:39:18;6.60;;;6.10;;
6442;SDS011;3254;47.372;8.512;2024-03-02T12:41:45;7.33;;;6.63;;
6442;SDS011;3254;47.372;8.512;2024-03-02T12:44:11;6.30;;;5.90;;
6442;SDS011;3254;47.372;8.512;2024-03-02T12:46:36;6.30;;;5.80;;
6442;SDS011;3254;47.372;8.512;2024-03-02T12:49:09;7.07;;;6.37;;
6442;SDS011;3254;47.372;8.512;2024-03-02T12:51:36;6.33;;;5.83;;
6442;SDS011;3254;47.372;8.512;2024-03-02T12:54:02;5.53;;;5.13;;
6442;SDS011;3254;47.372;8.512;2024-03-02T12:56:28;5.53;;;5.13;;
6442;SDS011;3254;47.372;8.512;2024-03-02T12:58:54;5.00;;;4.70;;
6442;SDS011;3254;47.372;8.512;2024-03-02T13:01:20;10.87;;;4.70;;
6442;SDS011;3254;47.372;8.512;2024-03-02T13:03:49;5.90;;;4.40;;
6442;SDS011;3254;47.372;8.512;2024-03-02T13:06:16;4.80;;;4.50;;
6442;SDS011;3254;47.372;8.512;2024-03-02T13:08:42;3.90;;;3.57;;
6442;SDS011;3254;47.372;8.512;2024-03-02T13:11:07;3.83;;;3.63;;
6442;SDS011;3254;47.372;8.512;2024-03-02T13:13:33;3.27;;;3.07;;
6442;SDS011;3254;47.372;8.512;2024-03-02T13:15:59;3.10;;;3.00;;
6442;SDS011;3254;47.372;8.512;2024-03-02T13:18:25;3.27;;;3.10;;
6442;SDS011;3254;47.372;8.512;2024-03-02T13:20:51;3.40;;;3.20;;
6442;SDS011;3254;47.372;8.512;2024-03-02T13:23:17;3.23;;;3.03;;
6442;SDS011;3254;47.372;8.512;2024-03-02T13:25:42;2.67;;;2.47;;
6442;SDS011;3254;47.372;8.512;2024-03-02T13:28:08;3.40;;;3.10;;
6442;SDS011;3254;47.372;8.512;2024-03-02T13:30:33;3.00;;;2.90;;
6442;SDS011;3254;47.372;8.512;2024-03-02T13:32:59;4.30;;;3.90;;
6442;SDS011;3254;47.372;8.512;2024-03-02T13:35:24;4.30;;;4.00;;
6442;SDS011;3254;47.372;8.512;2024-03-02T13:37:50;3.47;;;3.27;;
6442;SDS011;3254;47.372;8.512;2024-03-02T13:40:15;3.83;;;3.63;;
6442;SDS011;3254;47.372;8.512;2024-03-02T13:42:45;4.60;;;4.20;;
6442;SDS011;3254;47.372;8.512;2024-03-02T13:45:14;4.20;;;3.90;;
6442;SDS011;3254;47.372;8.512;2024-03-02T13:47:39;3.70;;;3.50;;
6442;SDS011;3254;47.372;8.512;2024-03-02T13:50:04;4.43;;;4.23;;
6442;SDS011;3254;47.372;8.512;2024-03-02T13:52:31;4.50;;;4.07;;
6442;SDS011;3254;47.372;8.512;2024-03-02T13:54:56;4.20;;;4.00;;
6442;SDS011;3254;47.372;8.512;2024-03-02T13:57:22;3.57;;;3.37;;
6442;SDS011;3254;47.372;8.512;2024-03-02T13:59:47;3.53;;;3.37;;
6442;SDS011;3254;47.372;8.512;2024-03-02T14:02:13;4.23;;;3.83;;
6442;SDS011;3254;47.372;8.512;2024-03-02T14:04:38;3.80;;;3.40;;
6442;SDS011;3254;47.372;8.512;2024-03-02T14:07:04;3.57;;;3.43;;
6442;SDS011;3254;47.372;8.512;2024-03-02T14:09:32;4.33;;;4.00;;
6442;SDS011;3254;47.372;8.512;2024-03-02T14:11:58;3.77;;;3.50;;
6442;SDS011;3254;47.372;8.512;2024-03-02T14:14:25;3.80;;;3.60;;
6442;SDS011;3254;47.372;8.512;2024-03-02T14:16:51;4.10;;;3.90;;
6442;SDS011;3254;47.372;8.512;2024-03-02T14:19:17;3.83;;;3.63;;
6442;SDS011;3254;47.372;8.512;2024-03-02T14:21:42;4.13;;;3.83;;
6442;SDS011;3254;47.372;8.512;2024-03-02T14:24:08;4.63;;;4.33;;
6442;SDS011;3254;47.372;8.512;2024-03-02T14:26:34;4.27;;;3.97;;
6442;SDS011;3254;47.372;8.512;2024-03-02T14:29:01;5.10;;;4.60;;
6442;SDS011;3254;47.372;8.512;2024-03-02T14:31:27;4.20;;;3.90;;
6442;SDS011;3254;47.372;8.512;2024-03-02T14:33:52;4.50;;;3.70;;
6442;SDS011;3254;47.372;8.512;2024-03-02T14:36:18;4.50;;;4.20;;
6442;SDS011;3254;47.372;8.512;2024-03-02T14:38:43;4.53;;;4.20;;
6442;SDS011;3254;47.372;8.512;2024-03-02T14:41:09;4.27;;;4.00;;
6442;SDS011;3254;47.372;8.512;2024-03-02T14:43:34;3.90;;;3.60;;
6442;SDS011;3254;47.372;8.512;2024-03-02T14:46:00;6.53;;;3.90;;
6442;SDS011;3254;47.372;8.512;2024-03-02T14:48:25;4.93;;;4.30;;
6442;SDS011;3254;47.372;8.512;2024-03-02T14:50:51;3.77;;;3.53;;
6442;SDS011;3254;47.372;8.512;2024-03-02T14:53:16;4.00;;;3.70;;
6442;SDS011;3254;47.372;8.512;2024-03-02T14:55:41;3.80;;;3.60;;
6442;SDS011;3254;47.372;8.512;2024-03-02T14:58:07;4.20;;;3.90;;
6442;SDS011;3254;47.372;8.512;2024-03-02T15:00:33;3.70;;;3.40;;
6442;SDS011;3254;47.372;8.512;2024-03-02T15:02:58;4.30;;;3.60;;